Terminal Aerodrome Forecast
Issued by NWS

Home | Current Version | Previous Version | Text Only | Print | Product List | Glossary On
Versions: 1 2 3 4 5 6 7 8 9 10 11 12 13 14 15 16
000
FTUS41 KCAR 301123
TAFFVE
TAF
KFVE 301123Z 3012/3112 13011KT 1SM -SN OVC015
     FM301500 14010KT 3/4SM -SN BR OVC008
     FM301800 14007KT 3/4SM -SN BR OVC003
     FM310000 02010KT 1/2SM SN FG VV002
     FM310700 35017G27KT 1/4SM SN BLSN VV002=

USA.gov is the U.S. government's official web portal to all federal, state and local government web resources and services.